航空気象通報

ウインドサーファーのための航空気象通報による風予報です。

7/31-8/1の航空気象通報(国内、海外)

2011年07月31日 23時44分30秒 | TAF

羽田空港
TAF RJTT 310838Z 3109/0112 04012KT 9999 SCT013 BKN030
      TEMPO 3118/3121 BKN009 BKN015
      BECMG 0100/0103 07010KT
日本時間31日18時-1日09時:040度から12ノットの風
09-12時:風が変化
12-21時:070度から10ノットの風

富士山静岡空港
TAF RJNS 310839Z 3109/0112 06006KT 9999 FEW010 BKN030
日本時間31日18時-1日21時:060度から6ノットの風

福岡空港
TAF RJFF 310839Z 3109/0112 33006KT 9999 FEW030
      BECMG 3113/3115 14004KT
      BECMG 0100/0103 33008KT
      TEMPO 0106/0109 TS FEW020 SCT030 FEW030CB BKN040
      BECMG 0109/0112 14005KT
日本時間31日18-22時:330度から6ノットの風
22-24時:風が変化
1日00-09時:140度から4ノットの風
09-12時:風が変化
12-18時:330度から8ノットの風
18-21時:風が変化
21時:140度から5ノットの風

那覇空港
TAF ROAH 310850Z 3109/0112 10005KT 9999 FEW020
      BECMG 3118/3121 08003KT
日本時間31日18時-1日03時:100度から5ノットの風
03-06時:風が変化
06-21時:080度から3ノットの風

マウイのカフルイ空港
TAF PHOG 311120Z 3112/0112 06008KT P6SM FEW050
     FM311700 06012G18KT P6SM SCT050
     FM312000 06018G28KT P6SM SCT050
     FM010500 06012KT P6SM SCT050
     FM011100 06007KT P6SM SCT050
ハワイ時間31日02-07時:060度から8ノットの風
07-10時:060度から12ノット、突風18ノット
10-19時:060度から18ノット、突風28ノット
19時-1日01時:060度から12ノットの風
01-02時:060度から7ノットの風

サイパン空港
TAF PGSN 311135Z 3112/0112 VRB06KT P6SM VCSH FEW020 SCT040 BKN160
マリアナ時間31日22時-1日22時:風向不定6ノットの風

コメント

7/30-7/31の航空気象通報(国内、海外)

2011年07月30日 22時37分52秒 | TAF

羽田空港
TAF AMD RJTT 301123Z 3011/3112 11010KT 9999 FEW010 BKN030
      TEMPO 3011/3012 -TSRA FEW015 FEW020CB BKN040
      BECMG 3011/3013 04016KT
日本時間30日18-20時:110度から10ノットの風
20-22時:風が変化
22時-31日21時:040度から160ノットの風

但し、30日20-21時の間:一時、

富士山静岡空港
TAF AMD RJNS 301123Z 3011/3112 35004KT 8000 FEW010 BKN020
      TEMPO 3013/3018 4000 -SHRA BR SCT003 BKN005
      BECMG 3021/3024 04008KT
日本時間30日18時-31日06時:350度から4ノットの風
06-09時:風が変化
09-21時:040度から8ノットの風

但し、31日06-09時の間:一時、

福岡空港
TAF RJFF 300837Z 3009/3112 33008KT 9999 FEW025
      BECMG 3014/3016 12003KT
      BECMG 3100/3103 32010KT
日本時間30日18-23時:330度から8ノットの風
23時-30日01時:風が変化
01-09時:120度から3ノットの風
09-12時:風が変化
12-21時:320度から10ノットの風

那覇空港
TAF ROAH 300842Z 3009/3112 33004KT 9999 FEW020
      BECMG 3010/3011 12006KT
日本時間30日18-19時:330度から4ノットの風
19-20時:風が変化
20時-31日21時:120度から6ノットの風

マウイのカフルイ空港
TAF PHOG 301137Z 3012/3112 06007KT P6SM SCT035 SCT060
     FM301700 06012G18KT P6SM FEW035 SCT060
     FM302000 06018G28KT P6SM FEW035 SCT060
     FM310400 06012G20KT P6SM SCT060
     FM311100 06010KT P6SM SCT060
ハワイ時間30日02-07時:060度から7ノットの風
07-10時:060度から12ノット、突風18ノット
10-18時:060度から18ノット、突風28ノット
18-21時:060度から12ノット、突風20ノット
21時-31日02時:060度から10ノットの風

サイパン空港
TAF PGSN 301126Z 3012/3112 14005KT P6SM VCSH SCT019 BKN100
マリアナ時間30日22時-31日22時:140度から5ノットの風

コメント

7/29-7/30の航空気象通報(国内、海外)

2011年07月29日 23時36分18秒 | TAF

羽田空港
TAF AMD RJTT 291210Z 2912/3012 18008KT 8000 FEW010 BKN050
      TEMPO 2915/2921 4000 -SHRA BR
      BECMG 2921/2924 04006KT
      TEMPO 2921/3003 3000 -RA BR FEW003 BKN007
日本時間29日18時-30日06時:180度から8ノットの風
06-09時:風が変化
09-21時:040度から6ノットの風

但し、30日00-06時の間:一時、
但し、30日06-12時の間:一時、

富士山静岡空港
TAF RJNS 290841Z 2909/3012 16004KT 8000 FEW010 SCT070
      BECMG 2911/2913 26006KT
      BECMG 3000/3003 10007KT
      TEMPO 3006/3012 1500 TSRA FEW003 BKN005 FEW020CB
日本時間29日18-20時:160度から4ノットの風
20時-30日09時:260度から6ノットの風
09-12時:風が変化
12-21時:100度から7ノットの風

但し、30日15-21時の間:一時、

福岡空港
TAF RJFF 290848Z 2909/3012 33010KT 9999 FEW030 SCT040
      BECMG 2911/2913 14005KT
      BECMG 3000/3003 32010KT
日本時間29日18-20時:330度から10ノットの風
20-22時:風が変化
22時-30日09時:140度から5ノットの風
09-12時:風が変化
12-21時:320度から10ノットの風

那覇空港
TAF ROAH 290839Z 2909/3012 12006KT 9999 SCT020
日本時間29日18時-30日21時:120度から6ノットの風

マウイのカフルイ空港
TAF PHOG 291120Z 2912/3012 06008KT P6SM -SHRA SCT030 BKN040
      TEMPO 2912/2916 5SM -SHRA BR SCT015 BKN025
     FM292100 06015G25KT 6SM -SHRA SCT025 BKN040
     FM300200 06010KT 6SM -SHRA SCT025 BKN040
ハワイ時間29日02-11時:060度から8ノットの風
11-16時:060度から15ノット、突風25ノット
16時-30日02時:060度から10ノットの風

サイパン空港
TAF PGSN 291139Z 2912/3012 22008KT P6SM VCSH SCT016 BKN100
      TEMPO 2913/2917 3SM SHRA SCT012CB BKN025
マリアナ時間29日22時-30日22時:220度から8ノットの風

但し、29日23時-30日03時の間:一時、

コメント

7/28-7/29の航空気象通報(国内、海外)

2011年07月28日 23時17分27秒 | TAF

羽田空港
TAF AMD RJTT 281353Z 2813/2912 10006KT 6000 FEW020 BKN060
      TEMPO 2813/2816 3000 TSRA BR FEW020 BKN030 FEW030CB
      TEMPO 2816/2818 3000 BR
      BECMG 2818/2821 01004KT
      BECMG 2900/2903 10006KT
日本時間28日18時-29日03時:100度から6ノットの風
03-06時:風が変化
06-09時:010度から4ノットの風
09-12時:風が変化
12-21時:100度から6ノットの風

但し、28日22時-29日01時の間:一時、

富士山静岡空港
TAF RJNS 280841Z 2809/2912 27006KT 9999 FEW020 SCT060
      BECMG 2900/2903 10006KT
日本時間28日18時-29日09時:270度から6ノットの風
09-12時:風が変化
12-21時:100度から6ノットの風

福岡空港
TAF RJFF 280854Z 2809/2912 34007KT 9999 FEW030
      BECMG 2810/2812 14005KT
      BECMG 2900/2903 31010KT
日本時間28日18-19時:340度から7ノットの風
19-21時:風が変化
21時-29日09時:140度から5ノットの風
09-12時:風が変化
12-21時:310度から10ノットの風

那覇空港
TAF ROAH 280845Z 2809/2912 10008KT 9999 FEW015
日本時間28日18時-29日21時:100度から8ノットの風

マウイのカフルイ空港
TAF PHOG 281120Z 2812/2912 05012KT P6SM SCT050
     FM282000 06018G28KT P6SM SCT050
     FM290700 06012KT P6SM SCT050
     FM290900 06008KT P6SM SCT050
ハワイ時間28日02-10時:050度から12ノットの風
10-21時:060度から18ノット、突風28ノット
21-23時:060度から12ノットの風
23時-29日02時:060度から8ノットの風

サイパン空港
TAF PGSN 281135Z 2812/2912 18011G17KT P6SM -RA SCT021 SCT040 OVC100
      TEMPO 2812/2814 3SM SHRA SCT015 BKN040 OVC070
     FM281800 18012KT P6SM VCSH SCT020 SCT050 BKN100
マリアナ時間28日22時-29日04時:180度から11ノット、突風17ノット
04-22時:180度から12ノットの風

コメント

7/27-7/28の航空気象通報(国内、海外)

2011年07月28日 00時11分30秒 | TAF

羽田空港
TAF RJTT 270844Z 2709/2812 18010KT 9999 FEW020 SCT060
      BECMG 2714/2716 28004KT
      TEMPO 2718/2724 4000 -SHRA BR
      BECMG 2800/2803 13006KT
日本時間27日18-23時:1801度から18ノットの風
23時-28日01時:風が変化
01-09時:280度から4ノットの風
09-12時:風が変化
12-21時:130度から6ノットの風

但し、28日03-09時の間:一時、

富士山静岡空港
TAF RJNS 270843Z 2709/2812 25010KT 9999 FEW008 SCT015
日本時間27日18時-28日21時:250度から10ノットの風

福岡空港
TAF RJFF 270845Z 2709/2812 15008KT 9999 FEW030
      BECMG 2803/2806 32010KT
      BECMG 2809/2812 15006KT
日本時間27日18時-28日12時:150度から8ノットの風
12-15時:風が変化
15-18時:320度から10ノットの風
18時-28日21時:150度から6ノットの風

那覇空港
TAF ROAH 270843Z 2709/2812 12012KT 9999 FEW020
日本時間27日18時-28日21時:120度から12ノットの風

マウイのカフルイ空港
TAF PHOG 271136Z 2712/2812 15005KT P6SM FEW050
     FM272100 06012G20KT P6SM FEW035 SCT045 BKN060
     FM280500 06012KT P6SM FEW050
     FM280900 13004KT P6SM FEW050
ハワイ時間27日02-11時:150度から5ノットの風

11-19時:050度から12ノット、突風20ノット

19-23時:060度から12ノットの風
23時-28日02時:130度から4ノットの風

サイパン空港
TAF PGSN 271133Z 2712/2812 10010KT P6SM VCSH SCT018 SCT040 BKN120
      TEMPO 2712/2715 14010G20KT 3SM SHRA SCT015CB BKN025
     FM271500 16012G20KT P6SM VCSH SCT015 SCT040 BKN100
マリアナ時間27日22時-28日01時:100度から10ノットの風
但し、22時-28日01時の間:一時、140度から10ノット、突風20ノット
01-22時:160度から12ノット、突風20ノット

コメント